Terminal Aerodrome Forecast
Issued by NWS

Home | Current Version | Previous Version | Text Only | Print | Product List | Glossary On
Versions: 1 2 3 4 5 6 7 8 9 10 11 12 13 14 15 16 17 18 19 20 21 22 23 24 25 26 27 28 29 30 31 32 33
662
FTUS46 KOTX 081727
TAFSFF
TAF
KSFF 081727Z 0818/0918 VRB02KT P6SM BKN200
     FM090300 VRB02KT P6SM VCFG SCT200
     FM091000 00000KT 6SM BR FEW004
     FM091400 VRB02KT 3SM BR SCT006=

USA.gov is the U.S. government's official web portal to all federal, state and local government web resources and services.